sensor_id;sensor_type;location;lat;lon;timestamp;P1;durP1;ratioP1;P2;durP2;ratioP2
24030;SDS011;12240;51.142;22.486;2022-11-15T00:02:37;38.67;;;13.85;;
24030;SDS011;12240;51.142;22.486;2022-11-15T00:05:24;39.65;;;15.10;;
24030;SDS011;12240;51.142;22.486;2022-11-15T00:08:11;42.83;;;14.85;;
24030;SDS011;12240;51.142;22.486;2022-11-15T00:11:00;41.58;;;13.45;;
24030;SDS011;12240;51.142;22.486;2022-11-15T00:13:49;46.70;;;14.80;;
24030;SDS011;12240;51.142;22.486;2022-11-15T00:16:36;45.75;;;14.82;;
24030;SDS011;12240;51.142;22.486;2022-11-15T00:19:22;46.47;;;15.43;;
24030;SDS011;12240;51.142;22.486;2022-11-15T00:22:09;42.47;;;15.32;;
24030;SDS011;12240;51.142;22.486;2022-11-15T00:24:56;45.00;;;15.45;;
24030;SDS011;12240;51.142;22.486;2022-11-15T00:27:42;45.80;;;15.15;;
24030;SDS011;12240;51.142;22.486;2022-11-15T00:30:30;39.95;;;14.77;;
24030;SDS011;12240;51.142;22.486;2022-11-15T00:33:17;45.60;;;14.88;;
24030;SDS011;12240;51.142;22.486;2022-11-15T00:36:05;48.83;;;15.00;;
24030;SDS011;12240;51.142;22.486;2022-11-15T00:38:54;46.50;;;16.42;;
24030;SDS011;12240;51.142;22.486;2022-11-15T00:41:42;59.88;;;17.10;;
24030;SDS011;12240;51.142;22.486;2022-11-15T00:44:28;42.42;;;14.00;;
24030;SDS011;12240;51.142;22.486;2022-11-15T00:47:15;39.22;;;14.07;;
24030;SDS011;12240;51.142;22.486;2022-11-15T00:50:02;51.28;;;15.90;;
24030;SDS011;12240;51.142;22.486;2022-11-15T00:52:50;49.55;;;17.48;;
24030;SDS011;12240;51.142;22.486;2022-11-15T00:55:36;56.17;;;16.65;;
24030;SDS011;12240;51.142;22.486;2022-11-15T00:58:23;47.55;;;16.70;;
24030;SDS011;12240;51.142;22.486;2022-11-15T01:01:13;47.55;;;16.10;;
24030;SDS011;12240;51.142;22.486;2022-11-15T01:04:00;48.47;;;15.05;;
24030;SDS011;12240;51.142;22.486;2022-11-15T01:06:47;44.53;;;14.55;;
24030;SDS011;12240;51.142;22.486;2022-11-15T01:09:34;41.03;;;14.57;;
24030;SDS011;12240;51.142;22.486;2022-11-15T01:12:21;36.78;;;14.38;;
24030;SDS011;12240;51.142;22.486;2022-11-15T01:15:07;37.55;;;12.85;;
24030;SDS011;12240;51.142;22.486;2022-11-15T01:17:54;39.92;;;14.57;;
24030;SDS011;12240;51.142;22.486;2022-11-15T01:20:41;40.45;;;14.77;;
24030;SDS011;12240;51.142;22.486;2022-11-15T01:23:28;43.55;;;13.23;;
24030;SDS011;12240;51.142;22.486;2022-11-15T01:26:16;39.72;;;14.15;;
24030;SDS011;12240;51.142;22.486;2022-11-15T01:29:02;40.72;;;14.18;;
24030;SDS011;12240;51.142;22.486;2022-11-15T01:31:49;43.53;;;13.57;;
24030;SDS011;12240;51.142;22.486;2022-11-15T01:34:38;42.70;;;13.68;;
24030;SDS011;12240;51.142;22.486;2022-11-15T01:37:25;37.70;;;12.77;;
24030;SDS011;12240;51.142;22.486;2022-11-15T01:40:11;44.92;;;13.88;;
24030;SDS011;12240;51.142;22.486;2022-11-15T01:42:58;47.33;;;15.20;;
24030;SDS011;12240;51.142;22.486;2022-11-15T01:49:19;48.33;;;14.73;;
24030;SDS011;12240;51.142;22.486;2022-11-15T01:52:10;47.55;;;14.95;;
24030;SDS011;12240;51.142;22.486;2022-11-15T01:58:07;49.90;;;14.63;;
24030;SDS011;12240;51.142;22.486;2022-11-15T02:00:54;48.35;;;14.38;;
24030;SDS011;12240;51.142;22.486;2022-11-15T02:03:43;36.33;;;11.60;;
24030;SDS011;12240;51.142;22.486;2022-11-15T02:07:15;40.08;;;13.23;;
24030;SDS011;12240;51.142;22.486;2022-11-15T02:10:10;35.72;;;12.20;;
24030;SDS011;12240;51.142;22.486;2022-11-15T02:13:04;39.55;;;11.90;;
24030;SDS011;12240;51.142;22.486;2022-11-15T02:15:54;36.63;;;12.48;;
24030;SDS011;12240;51.142;22.486;2022-11-15T02:29:22;38.30;;;12.23;;
24030;SDS011;12240;51.142;22.486;2022-11-15T02:36:00;36.03;;;12.05;;
24030;SDS011;12240;51.142;22.486;2022-11-15T02:39:09;34.72;;;11.38;;
24030;SDS011;12240;51.142;22.486;2022-11-15T02:42:07;41.83;;;12.93;;
24030;SDS011;12240;51.142;22.486;2022-11-15T02:45:30;33.53;;;10.15;;
24030;SDS011;12240;51.142;22.486;2022-11-15T02:48:24;33.95;;;11.30;;
24030;SDS011;12240;51.142;22.486;2022-11-15T02:51:12;29.63;;;10.85;;
24030;SDS011;12240;51.142;22.486;2022-11-15T02:54:00;34.13;;;10.88;;
24030;SDS011;12240;51.142;22.486;2022-11-15T02:56:47;33.28;;;11.00;;
24030;SDS011;12240;51.142;22.486;2022-11-15T03:09:51;39.40;;;11.88;;
24030;SDS011;12240;51.142;22.486;2022-11-15T03:12:56;38.42;;;12.60;;
24030;SDS011;12240;51.142;22.486;2022-11-15T03:15:52;38.13;;;11.50;;
24030;SDS011;12240;51.142;22.486;2022-11-15T03:18:54;33.28;;;11.32;;
24030;SDS011;12240;51.142;22.486;2022-11-15T03:22:12;36.80;;;11.38;;
24030;SDS011;12240;51.142;22.486;2022-11-15T03:25:05;37.65;;;11.15;;
24030;SDS011;12240;51.142;22.486;2022-11-15T03:27:57;34.13;;;11.23;;
24030;SDS011;12240;51.142;22.486;2022-11-15T03:30:48;38.08;;;11.55;;
24030;SDS011;12240;51.142;22.486;2022-11-15T03:33:37;34.35;;;11.10;;
24030;SDS011;12240;51.142;22.486;2022-11-15T03:36:26;31.20;;;10.30;;
24030;SDS011;12240;51.142;22.486;2022-11-15T03:39:15;31.08;;;10.10;;
24030;SDS011;12240;51.142;22.486;2022-11-15T03:45:36;30.58;;;9.98;;
24030;SDS011;12240;51.142;22.486;2022-11-15T03:48:41;33.28;;;11.15;;
24030;SDS011;12240;51.142;22.486;2022-11-15T03:51:35;27.17;;;10.18;;
24030;SDS011;12240;51.142;22.486;2022-11-15T03:54:22;32.85;;;11.55;;
24030;SDS011;12240;51.142;22.486;2022-11-15T03:57:09;37.47;;;11.55;;
24030;SDS011;12240;51.142;22.486;2022-11-15T03:59:56;30.80;;;10.18;;
24030;SDS011;12240;51.142;22.486;2022-11-15T04:02:42;32.25;;;10.23;;
24030;SDS011;12240;51.142;22.486;2022-11-15T04:05:29;37.75;;;11.70;;
24030;SDS011;12240;51.142;22.486;2022-11-15T04:08:16;30.65;;;9.82;;
24030;SDS011;12240;51.142;22.486;2022-11-15T04:11:03;28.20;;;10.27;;
24030;SDS011;12240;51.142;22.486;2022-11-15T04:13:50;36.05;;;10.75;;
24030;SDS011;12240;51.142;22.486;2022-11-15T04:16:36;37.67;;;11.77;;
24030;SDS011;12240;51.142;22.486;2022-11-15T04:19:28;38.25;;;12.00;;
24030;SDS011;12240;51.142;22.486;2022-11-15T04:22:33;33.97;;;11.32;;
24030;SDS011;12240;51.142;22.486;2022-11-15T04:25:40;32.30;;;11.05;;
24030;SDS011;12240;51.142;22.486;2022-11-15T04:28:28;30.08;;;10.93;;
24030;SDS011;12240;51.142;22.486;2022-11-15T04:31:15;31.38;;;9.65;;
24030;SDS011;12240;51.142;22.486;2022-11-15T04:34:02;31.13;;;10.18;;
24030;SDS011;12240;51.142;22.486;2022-11-15T04:36:48;27.83;;;9.88;;
24030;SDS011;12240;51.142;22.486;2022-11-15T04:39:54;32.88;;;9.93;;
24030;SDS011;12240;51.142;22.486;2022-11-15T04:42:42;33.20;;;10.23;;
24030;SDS011;12240;51.142;22.486;2022-11-15T04:45:28;31.52;;;10.07;;
24030;SDS011;12240;51.142;22.486;2022-11-15T04:48:15;33.72;;;11.15;;
24030;SDS011;12240;51.142;22.486;2022-11-15T04:51:02;29.83;;;9.90;;
24030;SDS011;12240;51.142;22.486;2022-11-15T04:53:48;31.77;;;10.32;;
24030;SDS011;12240;51.142;22.486;2022-11-15T04:56:35;29.67;;;10.65;;
24030;SDS011;12240;51.142;22.486;2022-11-15T04:59:22;28.38;;;9.07;;
24030;SDS011;12240;51.142;22.486;2022-11-15T05:02:09;32.58;;;10.35;;
24030;SDS011;12240;51.142;22.486;2022-11-15T05:04:56;30.55;;;10.30;;
24030;SDS011;12240;51.142;22.486;2022-11-15T05:07:43;30.60;;;9.32;;
24030;SDS011;12240;51.142;22.486;2022-11-15T05:10:30;27.05;;;9.65;;
24030;SDS011;12240;51.142;22.486;2022-11-15T05:13:17;33.95;;;9.90;;
24030;SDS011;12240;51.142;22.486;2022-11-15T05:16:04;30.40;;;10.18;;
24030;SDS011;12240;51.142;22.486;2022-11-15T05:18:51;29.90;;;9.88;;
24030;SDS011;12240;51.142;22.486;2022-11-15T05:21:39;27.52;;;9.90;;
24030;SDS011;12240;51.142;22.486;2022-11-15T05:24:26;25.67;;;8.93;;
24030;SDS011;12240;51.142;22.486;2022-11-15T05:27:13;28.63;;;9.90;;
24030;SDS011;12240;51.142;22.486;2022-11-15T05:29:59;30.05;;;10.13;;
24030;SDS011;12240;51.142;22.486;2022-11-15T05:32:46;29.92;;;9.85;;
24030;SDS011;12240;51.142;22.486;2022-11-15T05:35:34;24.75;;;9.00;;
24030;SDS011;12240;51.142;22.486;2022-11-15T05:38:27;27.45;;;8.98;;
24030;SDS011;12240;51.142;22.486;2022-11-15T05:41:14;23.77;;;9.02;;
24030;SDS011;12240;51.142;22.486;2022-11-15T05:44:05;24.92;;;9.20;;
24030;SDS011;12240;51.142;22.486;2022-11-15T05:46:56;24.70;;;9.57;;
24030;SDS011;12240;51.142;22.486;2022-11-15T05:49:43;24.35;;;9.30;;
24030;SDS011;12240;51.142;22.486;2022-11-15T05:52:33;28.35;;;9.80;;
24030;SDS011;12240;51.142;22.486;2022-11-15T05:55:22;25.75;;;9.07;;
24030;SDS011;12240;51.142;22.486;2022-11-15T05:58:09;26.13;;;9.15;;
24030;SDS011;12240;51.142;22.486;2022-11-15T06:00:55;22.33;;;9.02;;
24030;SDS011;12240;51.142;22.486;2022-11-15T06:03:42;21.08;;;8.85;;
24030;SDS011;12240;51.142;22.486;2022-11-15T06:06:29;25.15;;;9.10;;
24030;SDS011;12240;51.142;22.486;2022-11-15T06:09:16;23.63;;;9.55;;
24030;SDS011;12240;51.142;22.486;2022-11-15T06:12:03;23.83;;;8.23;;
24030;SDS011;12240;51.142;22.486;2022-11-15T06:14:50;25.42;;;8.60;;
24030;SDS011;12240;51.142;22.486;2022-11-15T06:17:38;22.95;;;8.07;;
24030;SDS011;12240;51.142;22.486;2022-11-15T06:20:26;26.65;;;9.07;;
24030;SDS011;12240;51.142;22.486;2022-11-15T06:23:14;23.38;;;8.65;;
24030;SDS011;12240;51.142;22.486;2022-11-15T06:26:01;20.85;;;7.68;;
24030;SDS011;12240;51.142;22.486;2022-11-15T06:28:49;23.73;;;9.35;;
24030;SDS011;12240;51.142;22.486;2022-11-15T06:31:35;21.85;;;8.20;;
24030;SDS011;12240;51.142;22.486;2022-11-15T06:34:22;20.27;;;7.43;;
24030;SDS011;12240;51.142;22.486;2022-11-15T06:37:09;19.55;;;7.50;;
24030;SDS011;12240;51.142;22.486;2022-11-15T06:39:56;15.68;;;7.18;;
24030;SDS011;12240;51.142;22.486;2022-11-15T06:42:43;19.92;;;7.20;;
24030;SDS011;12240;51.142;22.486;2022-11-15T06:45:29;21.45;;;7.82;;
24030;SDS011;12240;51.142;22.486;2022-11-15T06:48:17;15.90;;;6.47;;
24030;SDS011;12240;51.142;22.486;2022-11-15T06:51:04;22.83;;;8.27;;
24030;SDS011;12240;51.142;22.486;2022-11-15T06:53:51;17.90;;;7.63;;
24030;SDS011;12240;51.142;22.486;2022-11-15T06:56:37;18.83;;;7.70;;
24030;SDS011;12240;51.142;22.486;2022-11-15T06:59:24;22.02;;;8.05;;
24030;SDS011;12240;51.142;22.486;2022-11-15T07:02:14;20.45;;;8.07;;
24030;SDS011;12240;51.142;22.486;2022-11-15T07:05:00;18.98;;;7.57;;
24030;SDS011;12240;51.142;22.486;2022-11-15T07:07:51;18.48;;;7.75;;
24030;SDS011;12240;51.142;22.486;2022-11-15T07:10:42;19.45;;;7.88;;
24030;SDS011;12240;51.142;22.486;2022-11-15T07:13:29;22.58;;;8.10;;
24030;SDS011;12240;51.142;22.486;2022-11-15T07:16:21;17.67;;;6.93;;
24030;SDS011;12240;51.142;22.486;2022-11-15T07:19:08;20.65;;;8.07;;
24030;SDS011;12240;51.142;22.486;2022-11-15T07:21:55;19.40;;;7.03;;
24030;SDS011;12240;51.142;22.486;2022-11-15T07:24:42;16.13;;;7.10;;
24030;SDS011;12240;51.142;22.486;2022-11-15T07:27:28;15.30;;;6.78;;
24030;SDS011;12240;51.142;22.486;2022-11-15T07:30:15;19.08;;;7.57;;
24030;SDS011;12240;51.142;22.486;2022-11-15T07:33:02;17.00;;;6.95;;
24030;SDS011;12240;51.142;22.486;2022-11-15T07:35:49;18.40;;;7.22;;
24030;SDS011;12240;51.142;22.486;2022-11-15T07:38:35;18.23;;;6.63;;
24030;SDS011;12240;51.142;22.486;2022-11-15T07:41:28;19.92;;;8.05;;
24030;SDS011;12240;51.142;22.486;2022-11-15T07:44:15;18.83;;;7.10;;
24030;SDS011;12240;51.142;22.486;2022-11-15T07:47:01;17.90;;;7.68;;
24030;SDS011;12240;51.142;22.486;2022-11-15T07:49:48;20.02;;;7.50;;
24030;SDS011;12240;51.142;22.486;2022-11-15T07:52:35;18.58;;;7.40;;
24030;SDS011;12240;51.142;22.486;2022-11-15T07:55:22;18.65;;;6.97;;
24030;SDS011;12240;51.142;22.486;2022-11-15T07:58:16;14.52;;;6.53;;
24030;SDS011;12240;51.142;22.486;2022-11-15T08:01:04;15.93;;;6.07;;
24030;SDS011;12240;51.142;22.486;2022-11-15T08:03:52;17.08;;;7.70;;
24030;SDS011;12240;51.142;22.486;2022-11-15T08:06:40;18.13;;;7.32;;
24030;SDS011;12240;51.142;22.486;2022-11-15T08:09:26;14.93;;;6.60;;
24030;SDS011;12240;51.142;22.486;2022-11-15T08:12:14;14.98;;;6.45;;
24030;SDS011;12240;51.142;22.486;2022-11-15T08:15:01;14.18;;;6.10;;
24030;SDS011;12240;51.142;22.486;2022-11-15T08:17:47;16.17;;;6.78;;
24030;SDS011;12240;51.142;22.486;2022-11-15T08:20:44;12.98;;;6.15;;
24030;SDS011;12240;51.142;22.486;2022-11-15T08:23:31;15.25;;;6.25;;
24030;SDS011;12240;51.142;22.486;2022-11-15T08:26:19;15.65;;;6.28;;
24030;SDS011;12240;51.142;22.486;2022-11-15T08:29:06;14.32;;;6.78;;
24030;SDS011;12240;51.142;22.486;2022-11-15T08:31:56;15.93;;;6.90;;
24030;SDS011;12240;51.142;22.486;2022-11-15T08:34:43;17.90;;;6.85;;
24030;SDS011;12240;51.142;22.486;2022-11-15T08:37:30;17.60;;;6.95;;
24030;SDS011;12240;51.142;22.486;2022-11-15T08:40:16;13.45;;;5.60;;
24030;SDS011;12240;51.142;22.486;2022-11-15T08:43:04;16.45;;;5.72;;
24030;SDS011;12240;51.142;22.486;2022-11-15T08:45:51;15.40;;;6.57;;
24030;SDS011;12240;51.142;22.486;2022-11-15T08:48:43;15.30;;;6.47;;
24030;SDS011;12240;51.142;22.486;2022-11-15T08:51:29;14.50;;;6.45;;
24030;SDS011;12240;51.142;22.486;2022-11-15T08:54:16;14.05;;;6.10;;
24030;SDS011;12240;51.142;22.486;2022-11-15T08:57:03;15.52;;;6.90;;
24030;SDS011;12240;51.142;22.486;2022-11-15T08:59:49;17.92;;;7.35;;
24030;SDS011;12240;51.142;22.486;2022-11-15T09:02:39;15.82;;;7.03;;
24030;SDS011;12240;51.142;22.486;2022-11-15T09:05:26;16.10;;;6.72;;
24030;SDS011;12240;51.142;22.486;2022-11-15T09:08:13;14.57;;;6.38;;
24030;SDS011;12240;51.142;22.486;2022-11-15T09:11:19;15.05;;;6.97;;
24030;SDS011;12240;51.142;22.486;2022-11-15T09:14:07;15.23;;;7.40;;
24030;SDS011;12240;51.142;22.486;2022-11-15T09:16:59;18.85;;;7.78;;
24030;SDS011;12240;51.142;22.486;2022-11-15T09:19:47;16.55;;;7.47;;
24030;SDS011;12240;51.142;22.486;2022-11-15T09:22:33;20.25;;;8.27;;
24030;SDS011;12240;51.142;22.486;2022-11-15T09:25:20;15.85;;;7.07;;
24030;SDS011;12240;51.142;22.486;2022-11-15T09:28:07;16.42;;;6.88;;
24030;SDS011;12240;51.142;22.486;2022-11-15T09:30:58;17.83;;;7.75;;
24030;SDS011;12240;51.142;22.486;2022-11-15T09:33:50;17.17;;;7.82;;
24030;SDS011;12240;51.142;22.486;2022-11-15T09:36:38;19.45;;;7.95;;
24030;SDS011;12240;51.142;22.486;2022-11-15T09:39:24;15.82;;;8.48;;
24030;SDS011;12240;51.142;22.486;2022-11-15T09:48:51;18.88;;;7.47;;
24030;SDS011;12240;51.142;22.486;2022-11-15T10:01:12;16.02;;;7.53;;
24030;SDS011;12240;51.142;22.486;2022-11-15T10:04:08;18.27;;;8.05;;
24030;SDS011;12240;51.142;22.486;2022-11-15T10:06:39;17.73;;;8.50;;
24030;SDS011;12240;51.142;22.486;2022-11-15T10:09:22;19.08;;;8.68;;
24030;SDS011;12240;51.142;22.486;2022-11-15T10:11:59;19.02;;;8.70;;
24030;SDS011;12240;51.142;22.486;2022-11-15T10:14:28;21.75;;;9.07;;
24030;SDS011;12240;51.142;22.486;2022-11-15T10:20:05;22.83;;;9.32;;
24030;SDS011;12240;51.142;22.486;2022-11-15T10:22:46;22.38;;;9.52;;
24030;SDS011;12240;51.142;22.486;2022-11-15T10:25:22;17.98;;;8.52;;
24030;SDS011;12240;51.142;22.486;2022-11-15T10:28:05;17.38;;;9.00;;
24030;SDS011;12240;51.142;22.486;2022-11-15T10:30:51;17.95;;;9.15;;
24030;SDS011;12240;51.142;22.486;2022-11-15T10:33:33;19.45;;;8.95;;
24030;SDS011;12240;51.142;22.486;2022-11-15T10:49:27;22.35;;;10.48;;
24030;SDS011;12240;51.142;22.486;2022-11-15T10:51:59;21.85;;;10.20;;
24030;SDS011;12240;51.142;22.486;2022-11-15T10:55:01;25.75;;;11.50;;
24030;SDS011;12240;51.142;22.486;2022-11-15T10:57:51;28.10;;;12.90;;
24030;SDS011;12240;51.142;22.486;2022-11-15T11:00:33;28.80;;;13.00;;
24030;SDS011;12240;51.142;22.486;2022-11-15T11:06:11;24.98;;;12.15;;
24030;SDS011;12240;51.142;22.486;2022-11-15T11:11:23;25.67;;;12.38;;
24030;SDS011;12240;51.142;22.486;2022-11-15T11:13:52;27.08;;;12.50;;
24030;SDS011;12240;51.142;22.486;2022-11-15T11:16:36;27.02;;;12.70;;
24030;SDS011;12240;51.142;22.486;2022-11-15T11:25:27;23.50;;;11.68;;
24030;SDS011;12240;51.142;22.486;2022-11-15T11:31:20;22.48;;;10.60;;
24030;SDS011;12240;51.142;22.486;2022-11-15T11:49:21;25.73;;;11.30;;
24030;SDS011;12240;51.142;22.486;2022-11-15T11:52:00;22.70;;;11.23;;
24030;SDS011;12240;51.142;22.486;2022-11-15T11:55:01;23.98;;;11.20;;
24030;SDS011;12240;51.142;22.486;2022-11-15T12:03:46;23.42;;;10.95;;
24030;SDS011;12240;51.142;22.486;2022-11-15T12:12:17;24.90;;;11.05;;
24030;SDS011;12240;51.142;22.486;2022-11-15T12:15:18;22.33;;;11.43;;
24030;SDS011;12240;51.142;22.486;2022-11-15T12:17:55;21.02;;;11.13;;
24030;SDS011;12240;51.142;22.486;2022-11-15T12:20:25;25.27;;;11.73;;
24030;SDS011;12240;51.142;22.486;2022-11-15T12:25:33;25.58;;;12.68;;
24030;SDS011;12240;51.142;22.486;2022-11-15T12:28:21;24.73;;;12.13;;
24030;SDS011;12240;51.142;22.486;2022-11-15T12:34:03;25.98;;;11.90;;
24030;SDS011;12240;51.142;22.486;2022-11-15T12:36:48;27.38;;;13.55;;
24030;SDS011;12240;51.142;22.486;2022-11-15T12:39:18;25.40;;;11.27;;
24030;SDS011;12240;51.142;22.486;2022-11-15T12:59:53;28.08;;;13.05;;
24030;SDS011;12240;51.142;22.486;2022-11-15T13:02:31;31.55;;;14.15;;
24030;SDS011;12240;51.142;22.486;2022-11-15T13:13:01;36.83;;;18.25;;
24030;SDS011;12240;51.142;22.486;2022-11-15T13:18:32;37.58;;;17.50;;
24030;SDS011;12240;51.142;22.486;2022-11-15T13:21:23;35.92;;;17.23;;
24030;SDS011;12240;51.142;22.486;2022-11-15T13:24:14;39.00;;;17.17;;
24030;SDS011;12240;51.142;22.486;2022-11-15T13:26:44;38.95;;;16.38;;
24030;SDS011;12240;51.142;22.486;2022-11-15T13:29:17;32.13;;;15.27;;
24030;SDS011;12240;51.142;22.486;2022-11-15T13:31:47;37.80;;;17.50;;
24030;SDS011;12240;51.142;22.486;2022-11-15T13:39:48;35.42;;;16.48;;
24030;SDS011;12240;51.142;22.486;2022-11-15T13:42:17;39.45;;;18.70;;
24030;SDS011;12240;51.142;22.486;2022-11-15T13:44:57;41.40;;;18.55;;
24030;SDS011;12240;51.142;22.486;2022-11-15T13:47:28;51.80;;;21.85;;
24030;SDS011;12240;51.142;22.486;2022-11-15T13:49:57;47.55;;;19.33;;
24030;SDS011;12240;51.142;22.486;2022-11-15T13:52:30;42.85;;;19.70;;
24030;SDS011;12240;51.142;22.486;2022-11-15T13:55:05;47.05;;;19.73;;
24030;SDS011;12240;51.142;22.486;2022-11-15T14:00:33;47.88;;;21.15;;
24030;SDS011;12240;51.142;22.486;2022-11-15T14:03:21;49.33;;;20.95;;
24030;SDS011;12240;51.142;22.486;2022-11-15T14:06:11;46.42;;;18.98;;
24030;SDS011;12240;51.142;22.486;2022-11-15T14:09:02;43.75;;;19.48;;
24030;SDS011;12240;51.142;22.486;2022-11-15T14:11:37;42.00;;;18.75;;
24030;SDS011;12240;51.142;22.486;2022-11-15T14:14:24;51.17;;;23.63;;
24030;SDS011;12240;51.142;22.486;2022-11-15T14:16:58;44.85;;;19.08;;
24030;SDS011;12240;51.142;22.486;2022-11-15T14:27:40;37.33;;;16.58;;
24030;SDS011;12240;51.142;22.486;2022-11-15T14:30:15;38.05;;;16.33;;
24030;SDS011;12240;51.142;22.486;2022-11-15T14:32:45;37.83;;;16.10;;
24030;SDS011;12240;51.142;22.486;2022-11-15T14:35:17;38.40;;;16.83;;
24030;SDS011;12240;51.142;22.486;2022-11-15T14:37:49;35.97;;;16.90;;
24030;SDS011;12240;51.142;22.486;2022-11-15T14:40:19;42.42;;;19.15;;
24030;SDS011;12240;51.142;22.486;2022-11-15T14:42:49;41.40;;;19.90;;
24030;SDS011;12240;51.142;22.486;2022-11-15T14:45:18;39.38;;;17.45;;
24030;SDS011;12240;51.142;22.486;2022-11-15T14:47:49;36.22;;;15.93;;
24030;SDS011;12240;51.142;22.486;2022-11-15T14:50:18;35.80;;;16.73;;
24030;SDS011;12240;51.142;22.486;2022-11-15T14:52:48;34.88;;;16.55;;
24030;SDS011;12240;51.142;22.486;2022-11-15T14:55:24;37.35;;;17.25;;
24030;SDS011;12240;51.142;22.486;2022-11-15T14:58:03;37.65;;;17.20;;
24030;SDS011;12240;51.142;22.486;2022-11-15T15:00:39;37.28;;;16.55;;
24030;SDS011;12240;51.142;22.486;2022-11-15T15:03:09;35.92;;;16.02;;
24030;SDS011;12240;51.142;22.486;2022-11-15T15:05:40;37.85;;;17.00;;
24030;SDS011;12240;51.142;22.486;2022-11-15T15:08:11;36.88;;;16.13;;
24030;SDS011;12240;51.142;22.486;2022-11-15T15:10:40;35.88;;;17.00;;
24030;SDS011;12240;51.142;22.486;2022-11-15T15:13:18;35.30;;;16.75;;
24030;SDS011;12240;51.142;22.486;2022-11-15T15:15:49;40.33;;;18.27;;
24030;SDS011;12240;51.142;22.486;2022-11-15T15:18:18;44.83;;;19.17;;
24030;SDS011;12240;51.142;22.486;2022-11-15T15:20:49;59.45;;;23.13;;
24030;SDS011;12240;51.142;22.486;2022-11-15T15:23:27;63.15;;;25.58;;
24030;SDS011;12240;51.142;22.486;2022-11-15T15:25:58;75.85;;;27.50;;
24030;SDS011;12240;51.142;22.486;2022-11-15T15:28:26;128.07;;;42.00;;
24030;SDS011;12240;51.142;22.486;2022-11-15T15:31:01;120.68;;;40.05;;
24030;SDS011;12240;51.142;22.486;2022-11-15T15:33:29;109.63;;;36.85;;
24030;SDS011;12240;51.142;22.486;2022-11-15T15:35:57;124.28;;;41.67;;
24030;SDS011;12240;51.142;22.486;2022-11-15T15:38:26;171.80;;;59.58;;
24030;SDS011;12240;51.142;22.486;2022-11-15T15:40:54;232.23;;;87.72;;
24030;SDS011;12240;51.142;22.486;2022-11-15T15:43:27;147.05;;;51.85;;
24030;SDS011;12240;51.142;22.486;2022-11-15T15:45:55;111.90;;;39.42;;
24030;SDS011;12240;51.142;22.486;2022-11-15T15:48:23;120.05;;;41.00;;
24030;SDS011;12240;51.142;22.486;2022-11-15T15:50:52;103.38;;;39.22;;
24030;SDS011;12240;51.142;22.486;2022-11-15T15:53:20;99.07;;;36.95;;
24030;SDS011;12240;51.142;22.486;2022-11-15T15:55:48;107.72;;;39.65;;
24030;SDS011;12240;51.142;22.486;2022-11-15T15:58:16;108.30;;;38.67;;
24030;SDS011;12240;51.142;22.486;2022-11-15T16:00:44;109.18;;;39.33;;
24030;SDS011;12240;51.142;22.486;2022-11-15T16:03:12;102.93;;;40.05;;
24030;SDS011;12240;51.142;22.486;2022-11-15T16:05:40;108.40;;;40.75;;
24030;SDS011;12240;51.142;22.486;2022-11-15T16:08:17;115.88;;;40.92;;
24030;SDS011;12240;51.142;22.486;2022-11-15T16:10:50;104.35;;;38.40;;
24030;SDS011;12240;51.142;22.486;2022-11-15T16:13:19;109.88;;;37.38;;
24030;SDS011;12240;51.142;22.486;2022-11-15T16:15:50;116.00;;;39.30;;
24030;SDS011;12240;51.142;22.486;2022-11-15T16:18:21;107.75;;;39.25;;
24030;SDS011;12240;51.142;22.486;2022-11-15T16:20:50;109.45;;;39.15;;
24030;SDS011;12240;51.142;22.486;2022-11-15T16:25:52;93.82;;;35.78;;
24030;SDS011;12240;51.142;22.486;2022-11-15T16:28:23;105.60;;;37.72;;
24030;SDS011;12240;51.142;22.486;2022-11-15T16:31:05;88.95;;;32.90;;
24030;SDS011;12240;51.142;22.486;2022-11-15T16:33:38;79.85;;;29.58;;
24030;SDS011;12240;51.142;22.486;2022-11-15T16:36:41;77.32;;;29.90;;
24030;SDS011;12240;51.142;22.486;2022-11-15T16:39:02;88.43;;;30.55;;
24030;SDS011;12240;51.142;22.486;2022-11-15T16:41:31;75.13;;;28.52;;
24030;SDS011;12240;51.142;22.486;2022-11-15T16:43:59;71.47;;;25.50;;
24030;SDS011;12240;51.142;22.486;2022-11-15T16:46:27;80.22;;;28.90;;
24030;SDS011;12240;51.142;22.486;2022-11-15T16:48:56;75.05;;;27.58;;
24030;SDS011;12240;51.142;22.486;2022-11-15T16:51:25;72.35;;;26.55;;
24030;SDS011;12240;51.142;22.486;2022-11-15T16:53:53;70.55;;;26.65;;
24030;SDS011;12240;51.142;22.486;2022-11-15T16:58:58;60.15;;;24.20;;
24030;SDS011;12240;51.142;22.486;2022-11-15T17:01:31;57.08;;;23.67;;
24030;SDS011;12240;51.142;22.486;2022-11-15T17:04:02;56.85;;;22.65;;
24030;SDS011;12240;51.142;22.486;2022-11-15T17:06:42;57.55;;;23.27;;
24030;SDS011;12240;51.142;22.486;2022-11-15T17:09:19;63.28;;;23.85;;
24030;SDS011;12240;51.142;22.486;2022-11-15T17:11:52;63.03;;;24.27;;
24030;SDS011;12240;51.142;22.486;2022-11-15T17:14:20;63.25;;;24.85;;
24030;SDS011;12240;51.142;22.486;2022-11-15T17:16:49;69.05;;;25.40;;
24030;SDS011;12240;51.142;22.486;2022-11-15T17:19:18;62.75;;;24.73;;
24030;SDS011;12240;51.142;22.486;2022-11-15T17:21:47;64.28;;;24.17;;
24030;SDS011;12240;51.142;22.486;2022-11-15T17:24:16;60.17;;;24.98;;
24030;SDS011;12240;51.142;22.486;2022-11-15T17:26:47;62.67;;;25.35;;
24030;SDS011;12240;51.142;22.486;2022-11-15T17:29:15;71.50;;;28.35;;
24030;SDS011;12240;51.142;22.486;2022-11-15T17:31:44;70.35;;;27.88;;
24030;SDS011;12240;51.142;22.486;2022-11-15T17:34:12;64.93;;;26.17;;
24030;SDS011;12240;51.142;22.486;2022-11-15T17:36:41;81.10;;;28.75;;
24030;SDS011;12240;51.142;22.486;2022-11-15T17:39:09;70.55;;;28.73;;
24030;SDS011;12240;51.142;22.486;2022-11-15T17:41:37;81.05;;;30.40;;
24030;SDS011;12240;51.142;22.486;2022-11-15T17:44:05;81.20;;;29.50;;
24030;SDS011;12240;51.142;22.486;2022-11-15T17:46:33;78.03;;;28.92;;
24030;SDS011;12240;51.142;22.486;2022-11-15T17:49:02;73.60;;;29.55;;
24030;SDS011;12240;51.142;22.486;2022-11-15T17:51:31;84.10;;;31.10;;
24030;SDS011;12240;51.142;22.486;2022-11-15T17:54:01;83.30;;;31.80;;
24030;SDS011;12240;51.142;22.486;2022-11-15T17:56:29;79.97;;;31.10;;
24030;SDS011;12240;51.142;22.486;2022-11-15T17:58:58;88.38;;;31.75;;
24030;SDS011;12240;51.142;22.486;2022-11-15T18:01:33;78.32;;;31.23;;
24030;SDS011;12240;51.142;22.486;2022-11-15T18:04:06;81.10;;;32.75;;
24030;SDS011;12240;51.142;22.486;2022-11-15T18:06:36;77.75;;;32.42;;
24030;SDS011;12240;51.142;22.486;2022-11-15T18:09:05;85.97;;;35.20;;
24030;SDS011;12240;51.142;22.486;2022-11-15T18:11:35;84.75;;;34.63;;
24030;SDS011;12240;51.142;22.486;2022-11-15T18:16:40;82.38;;;33.35;;
24030;SDS011;12240;51.142;22.486;2022-11-15T18:19:09;78.22;;;32.15;;
24030;SDS011;12240;51.142;22.486;2022-11-15T18:21:41;88.97;;;34.78;;
24030;SDS011;12240;51.142;22.486;2022-11-15T18:24:24;83.88;;;33.38;;
24030;SDS011;12240;51.142;22.486;2022-11-15T18:26:58;87.85;;;34.50;;
24030;SDS011;12240;51.142;22.486;2022-11-15T18:29:28;87.43;;;35.70;;